Terminal Aerodrome Forecast
Issued by NWS Jackson, MS

Home | Current Version | Previous Version | Text Only | Print | Product List | Glossary On
Versions: 1 2 3 4 5 6 7 8 9 10 11 12 13 14
000
FTUS44 KJAN 200900 AAB
TAFGLH
TAF AMD
KGLH 200933Z 2010/2106 00000KT 2SM BR BKN002
     FM201400 00000KT 3SM BR SKC
     FM201600 30003KT P6SM SKC=

USA.gov is the U.S. government's official web portal to all federal, state and local government web resources and services.